• Join FlightAware (Why Join?)
  • Login
  • US Flag 
05:36AM EST


 

Airport Tracker/Info


-or-


 

Live Flight TrackerFlight Track Log ✈ UAL139 ✈ 02-Jul-2013 ✈ KDEN - RJAA / NRT

Flight Track Log - Related Links

Times and Time Zones

All times are in EDT time to prevent confusion due to time zone crossing. See the UAL139 flight status page for this flight to view local times or setup timezone preferences in your user account.

Time Position Orientation Groundspeed Altitude Reporting Facility
EDT Latitude Longitude Course Direction KTS MPH feet Rate Location/Type
02:33PM 39.8570 -104.6760 312° West 13 15  Level FlightAware
02:37PM 39.8520 -104.6910 270° West 18 21 540 Level FlightAware
02:38PM 39.8520 -104.6940 270° West 33 38 1,080 Level FlightAware
02:39PM 39.8530 -104.6970 293° West 1,260 Level FlightAware
02:41PM 39.8792 -104.9628 278° West  Level FlightAware Approximate
02:42PM 39.8928 -105.1221 276° West  Level FlightAware Approximate
02:42PM 39.8793 -104.6960 276° West 5,100  Level FlightAware ADS-B
02:42PM 39.8888 -104.6960 360° North 196 226 5,500 2,760 Climbing FlightAware ADS-B
02:42PM 39.8937 -104.6970 351° North 195 224 5,800 2,700 Climbing FlightAware ADS-B
02:42PM 39.8988 -104.6970 360° North 195 224 6,000 2,400 Climbing FlightAware ADS-B
02:42PM 39.9023 -104.6980 348° North 195 224 6,200 2,160 Climbing FlightAware ADS-B
02:42PM 39.9087 -104.7010 340° North 200 230 6,400 1,140 Climbing FlightAware ADS-B
02:43PM 39.9217 -104.7060 344° North 220 253 6,600 840 Climbing FlightAware ADS-B
02:43PM 39.9341 -104.7110 343° North 232 267 6,800 1,020 Climbing FlightAware ADS-B
02:43PM 39.9383 -104.7140 331° Northwest 237 273 6,900 1,680 Climbing FlightAware ADS-B
02:43PM 39.9416 -104.7160 335° Northwest 240 276 7,000 1,680 Climbing FlightAware ADS-B
02:43PM 39.9452 -104.7190 327° Northwest 244 281 7,100 1,620 Climbing FlightAware ADS-B
02:43PM 39.9508 -104.7270 312° West 250 288 7,300 1,620 Climbing FlightAware ADS-B
02:43PM 39.9529 -104.7310 304° West 253 291 7,400 2,220 Climbing FlightAware ADS-B
02:43PM 39.9552 -104.7370 297° West 255 293 7,600 2,220 Climbing FlightAware ADS-B
02:43PM 39.9567 -104.7430 288° West 257 296 7,700 1,680 Climbing FlightAware ADS-B
02:43PM 39.9575 -104.7470 285° West 262 302 7,800 1,680 Climbing FlightAware ADS-B
02:43PM 39.9582 -104.7540 277° West 269 310 7,900 840 Climbing FlightAware ADS-B
02:43PM 39.9584 -104.7600 272° West 274 315 7,900 840 Level FlightAware ADS-B
02:44PM 39.9582 -104.7660 268° West 280 322 8,000 1,500 Climbing FlightAware ADS-B
02:44PM 39.9576 -104.7720 263° West 285 328 8,100 1,200 Climbing FlightAware ADS-B
02:44PM 39.9561 -104.7830 260° West 289 333 8,200 2,280 Climbing FlightAware ADS-B
02:44PM 39.9527 -104.8030 258° West 294 338 8,800 2,880 Climbing FlightAware ADS-B
02:44PM 39.9478 -104.8290 256° West 298 343 9,500 2,160 Climbing FlightAware ADS-B
02:45PM 39.9357 -104.8850 254° West 318 366 10,500 2,100 Climbing FlightAware ADS-B
02:45PM 39.9228 -104.9470 255° West 335 386 11,800 2,580 Climbing FlightAware ADS-B
02:46PM 39.9179 -104.9970 263° West 333 383 13,000 2,700 Climbing FlightAware ADS-B
02:46PM 39.9137 -105.0630 265° West 340 391 14,400 2,520 Climbing FlightAware ADS-B
02:47PM 39.9093 -105.1300 265° West 343 395 15,700 2,160 Climbing FlightAware ADS-B
02:47PM 39.9035 -105.2120 265° West 366 421 17,000 2,040 Climbing FlightAware ADS-B
02:47PM 39.9024 -105.2300 265° West 365 420 17,300 1,980 Climbing FlightAware ADS-B
02:48PM 39.9036 -105.2590 273° West 363 418 17,700 2,040 Climbing FlightAware ADS-B
02:48PM 39.9126 -105.3330 279° West 369 425 18,900 1,980 Climbing FlightAware ADS-B
02:49PM 39.9241 -105.4230 279° West 378 435 20,200 1,980 Climbing FlightAware ADS-B
02:49PM 39.9319 -105.4860 279° West 381 438 21,200 1,980 Climbing FlightAware ADS-B
02:50PM 39.9410 -105.5650 279° West 383 441 22,300 1,800 Climbing FlightAware ADS-B
02:50PM 39.9468 -105.6240 277° West 392 451 23,000 1,440 Climbing FlightAware ADS-B
02:51PM 39.9494 -105.6590 276° West 401 461 23,300 1,200 Climbing FlightAware ADS-B
02:51PM 39.9547 -105.7340 275° West 417 480 23,900 1,500 Climbing FlightAware ADS-B
02:52PM 39.9614 -105.8270 275° West 422 486 25,000 1,740 Climbing FlightAware ADS-B
02:52PM 39.9668 -105.9050 275° West 429 494 25,900 1,740 Climbing FlightAware ADS-B
02:53PM 39.9722 -105.9860 275° West 435 501 26,800 1,620 Climbing FlightAware ADS-B
02:53PM 39.9776 -106.0650 275° West 440 506 27,600 1,380 Climbing FlightAware ADS-B
02:54PM 40.0215 -106.2020 293° West 440 506 28,900 1,260 Climbing FlightAware ADS-B
02:55PM 40.0641 -106.2540 317° Northwest 425 489 29,500 1,140 Climbing FlightAware ADS-B
02:55PM 40.1086 -106.3080 317° Northwest 433 498 30,100 1,140 Climbing FlightAware ADS-B
02:56PM 40.1311 -106.3410 312° West 440 506 30,400 1,020 Climbing FlightAware ADS-B
02:56PM 40.1780 -106.4240 307° West 447 514 31,100 1,080 Climbing FlightAware
02:56PM 40.1916 -106.4500 304° West 441 507 31,300 1,080 Climbing FlightAware ADS-B
02:57PM 40.2322 -106.5250 305° West 451 519 31,900 960 Climbing FlightAware ADS-B
02:58PM 40.2760 -106.6070 305° West 461 531 32,500 600 Climbing FlightAware
02:58PM 40.3330 -106.7130 305° West 463 533 32,900 1,020 Climbing FlightAware
02:59PM 40.3910 -106.8200 305° West 466 536 34,100 1,320 Climbing FlightAware
03:00PM 40.4360 -106.9050 305° West 469 540 34,600 540 Climbing FlightAware
03:01PM 40.4920 -107.0140 304° West 469 540 34,900 960 Climbing FlightAware
03:02PM 40.5610 -107.1300 308° West 454 522 36,400 1,620 Climbing FlightAware
03:02PM 40.6400 -107.2610 309° West 444 511 37,900 1,020 Climbing FlightAware
03:03PM 40.6880 -107.3440 307° West 444 511 38,000 60 Climbing FlightAware
03:04PM 40.7360 -107.4260 308° West 446 513 38,000  Level FlightAware
03:05PM 40.7960 -107.5290 308° West 448 516 38,000  Level FlightAware
03:05PM 40.8440 -107.6110 308° West 449 517 38,000  Level FlightAware
03:06PM 40.8950 -107.7010 307° West 448 516 38,000  Level FlightAware
03:07PM 40.9640 -107.8200 308° West 447 514 38,000  Level FlightAware
03:07PM 41.0000 -107.8830 307° West 447 514 38,000  Level FlightAware
03:08PM 41.0530 -107.9760 307° West 447 514 38,000  Level FlightAware
03:09PM 41.0760 -108.0170 307° West 447 514 38,000  Level FlightAware
03:09PM 41.1290 -108.1110 307° West 447 514 38,000  Level FlightAware
03:10PM 41.1680 -108.1800 307° West 447 514 38,000  Level FlightAware
03:11PM 41.1940 -108.2260 307° West 447 514 38,000  Level FlightAware
03:11PM 41.2490 -108.3230 307° West 447 514 38,000  Level FlightAware
03:12PM 41.3000 -108.4130 307° West 447 514 38,000  Level FlightAware
03:13PM 41.3500 -108.5010 307° West 447 514 38,000  Level FlightAware
03:14PM 41.3920 -108.5760 307° West 447 514 38,000  Level FlightAware
03:14PM 41.4300 -108.6430 307° West 447 514 38,000  Level FlightAware
03:15PM 41.4790 -108.7290 307° West 447 514 38,000  Level FlightAware
03:16PM 41.5180 -108.7990 307° West 447 514 38,000  Level FlightAware
03:16PM 41.7992 -108.8386 307° West 430 495 38,000  Level Salt Lake Center
03:17PM 41.8881 -108.9331 322° Northwest 429 494 38,000  Level Salt Lake Center
03:18PM 41.9931 -109.0444 322° Northwest 432 497 38,000  Level Salt Lake Center
03:19PM 42.0814 -109.1403 321° Northwest 429 494 38,000  Level Salt Lake Center
03:20PM 42.1694 -109.2794 311° West 435 501 38,000  Level Salt Lake Center
03:21PM 42.2403 -109.4042 308° West 438 504 38,000  Level Salt Lake Center
03:22PM 42.3186 -109.5589 304° West 444 511 38,000  Level Salt Lake Center
03:24PM 42.3847 -109.6908 304° West 445 512 38,000  Level Salt Lake Center
03:25PM 42.4625 -109.8456 304° West 446 513 38,000  Level Salt Lake Center
03:26PM 42.5303 -109.9786 305° West 448 516 38,000  Level Salt Lake Center
03:27PM 42.6067 -110.1336 304° West 444 511 38,000  Level Salt Lake Center
03:28PM 42.6733 -110.2658 304° West 443 510 38,000  Level Salt Lake Center
03:29PM 42.7436 -110.4103 304° West 442 509 38,000  Level Salt Lake Center
03:30PM 42.8214 -110.5669 304° West 446 513 38,000  Level Salt Lake Center
03:31PM 42.8886 -110.6972 305° West 442 509 38,000  Level Salt Lake Center
03:32PM 42.9647 -110.8567 303° West 448 516 38,000  Level Salt Lake Center
03:37PM 43.3551 -111.6650 303° West 455 524 38,000  Level FlightAware ADS-B
03:38PM 43.3899 -111.7380 303° West 454 522 38,000  Level FlightAware ADS-B
03:39PM 43.4608 -111.8867 303° West 451 519 38,000  Level Salt Lake Center
03:40PM 43.5103 -112.0383 294° West 453 521 38,000  Level Salt Lake Center
03:46PM 43.7829 -113.0560 294° West 461 531 38,000  Level FlightAware ADS-B
03:47PM 43.8072 -113.1420 291° West 464 534 38,000  Level FlightAware ADS-B
03:47PM 43.8309 -113.2270 291° West 466 536 38,000  Level FlightAware ADS-B
03:48PM 43.8688 -113.3290 297° West 466 536 38,000  Level FlightAware ADS-B
03:49PM 43.9292 -113.4630 302° West 465 535 38,000  Level FlightAware ADS-B
03:49PM 43.9683 -113.5489 302° West 464 534 38,000  Level Salt Lake Center
03:50PM 44.0478 -113.7153 304° West 464 534 38,000  Level Salt Lake Center
03:51PM 44.1128 -113.8569 303° West 457 526 38,000  Level Salt Lake Center
03:52PM 44.1808 -114.0022 303° West 461 531 38,000  Level Salt Lake Center
03:53PM 44.2597 -114.1703 303° West 464 534 38,000  Level Salt Lake Center
03:54PM 44.3256 -114.3139 303° West 461 531 38,000  Level Salt Lake Center
03:56PM 44.4044 -114.4800 304° West 460 529 38,000  Level Salt Lake Center
03:57PM 44.4706 -114.6247 303° West 461 531 38,000  Level Salt Lake Center
03:58PM 44.5478 -114.7925 303° West 460 529 38,000  Level Salt Lake Center
03:59PM 44.6119 -114.9361 302° West 457 526 38,000  Level Salt Lake Center
04:00PM 44.6878 -115.1042 302° West 458 527 38,000  Level Salt Lake Center
04:01PM 44.7528 -115.2486 302° West 459 528 38,000  Level Salt Lake Center
04:02PM 44.8278 -115.4169 302° West 457 526 38,000  Level Salt Lake Center
04:08PM 45.2300 -116.3390 302° West 464 534 38,000  Level FlightAware
04:08PM 45.2690 -116.4290 302° West 466 536 38,000  Level FlightAware
04:09PM 45.3180 -116.5460 301° West 466 536 38,000  Level FlightAware
04:10PM 45.3770 -116.6840 301° West 463 533 38,000  Level FlightAware
04:10PM 45.4170 -116.7780 301° West 466 536 38,000  Level FlightAware
04:11PM 45.4620 -116.8840 301° West 468 539 38,000  Level FlightAware
04:12PM 45.5080 -116.9940 301° West 468 539 38,000  Level FlightAware
04:13PM 45.5560 -117.1070 301° West 468 539 38,000  Level FlightAware
04:13PM 45.6040 -117.2210 301° West 466 536 38,000  Level FlightAware
04:14PM 45.6460 -117.3230 301° West 465 535 38,000  Level FlightAware
04:15PM 45.6910 -117.4330 300° West 468 539 38,000  Level FlightAware
04:15PM 45.7330 -117.5330 301° West 468 539 38,000  Level FlightAware
04:16PM 45.7790 -117.6460 300° West 470 541 38,000  Level FlightAware
04:17PM 45.8210 -117.7490 300° West 470 541 38,000  Level FlightAware
04:17PM 45.8720 -117.8730 301° West 466 536 38,000 60 Level FlightAware
04:18PM 45.9140 -117.9760 300° West 468 539 38,100 480 Climbing FlightAware
04:19PM 45.9620 -118.0950 300° West 466 536 38,700 660 Climbing FlightAware
04:19PM 46.0050 -118.2010 300° West 464 534 39,100 480 Climbing FlightAware
04:20PM 46.0500 -118.3140 300° West 465 535 39,400 420 Climbing FlightAware
04:21PM 46.0970 -118.4300 300° West 467 537 39,700 300 Climbing FlightAware
04:22PM 46.1440 -118.5490 300° West 471 542 39,900 180 Climbing FlightAware
04:22PM 46.1890 -118.6640 300° West 469 540 40,000 60 Climbing FlightAware
04:23PM 46.2320 -118.7740 300° West 469 540 40,000  Level FlightAware
04:24PM 46.2740 -118.8790 300° West 470 541 40,000  Level FlightAware
04:24PM 46.3180 -118.9910 300° West 469 540 40,000  Level FlightAware
04:25PM 46.3600 -119.0990 299° West 467 537 40,000  Level FlightAware
04:26PM 46.4020 -119.2080 299° West 466 536 40,000  Level FlightAware
04:26PM 46.4442 -119.3170 299° West 466 536 40,000  Level FlightAware ADS-B
04:27PM 46.4940 -119.4470 299° West 461 531 40,000  Level FlightAware
04:27PM 46.5119 -119.4930 299° West 463 533 40,000  Level FlightAware ADS-B
04:28PM 46.5431 -119.5750 299° West 461 531 40,000  Level FlightAware ADS-B
04:28PM 46.5744 -119.6570 299° West 459 528 40,000  Level FlightAware ADS-B
04:29PM 46.6052 -119.7380 299° West 458 527 40,000  Level FlightAware ADS-B
04:29PM 46.6361 -119.8200 299° West 457 526 40,000  Level FlightAware ADS-B
04:30PM 46.6675 -119.9020 299° West 458 527 40,000  Level FlightAware ADS-B
04:30PM 46.6990 -119.9860 299° West 458 527 40,000  Level FlightAware ADS-B
04:31PM 46.7297 -120.0680 299° West 459 528 40,000  Level FlightAware ADS-B
04:31PM 46.7618 -120.1530 299° West 460 529 40,000  Level FlightAware ADS-B
04:32PM 46.7925 -120.2350 299° West 456 525 40,000  Level FlightAware ADS-B
04:32PM 46.8227 -120.3170 298° West 456 525 40,000  Level FlightAware ADS-B
04:33PM 46.8529 -120.3980 299° West 458 527 40,000  Level FlightAware ADS-B
04:33PM 46.8830 -120.4790 299° West 451 519 40,000  Level FlightAware ADS-B
04:34PM 46.9125 -120.5590 298° West 450 518 40,000  Level FlightAware ADS-B
04:34PM 46.9425 -120.6410 298° West 450 518 40,000  Level FlightAware ADS-B
04:35PM 46.9721 -120.7220 298° West 451 519 40,000  Level FlightAware ADS-B
04:35PM 47.0015 -120.8020 298° West 449 517 40,000  Level FlightAware ADS-B
04:36PM 47.0309 -120.8830 298° West 448 516 40,000  Level FlightAware ADS-B
04:36PM 47.0603 -120.9640 298° West 450 518 40,000  Level FlightAware ADS-B
04:37PM 47.0898 -121.0450 298° West 448 516 40,000  Level FlightAware ADS-B
04:37PM 47.1192 -121.1260 298° West 447 514 40,000  Level FlightAware ADS-B
04:38PM 47.1483 -121.2080 298° West 450 518 40,000  Level FlightAware ADS-B
04:38PM 47.1775 -121.2890 298° West 452 520 40,000  Level FlightAware ADS-B
04:39PM 47.2069 -121.3710 298° West 453 521 40,000  Level FlightAware ADS-B
04:39PM 47.2362 -121.4530 298° West 454 522 40,000  Level FlightAware ADS-B
04:40PM 47.2653 -121.5350 298° West 450 518 40,000  Level FlightAware ADS-B
04:40PM 47.2941 -121.6160 298° West 449 517 40,000  Level FlightAware ADS-B
04:41PM 47.3232 -121.6990 297° West 450 518 40,000  Level FlightAware ADS-B
04:41PM 47.3524 -121.7820 297° West 450 518 40,000  Level FlightAware ADS-B
04:42PM 47.3816 -121.8650 297° West 452 520 40,000  Level FlightAware ADS-B
04:43PM 47.4120 -121.9520 297° West 452 520 40,000  Level FlightAware ADS-B
04:43PM 47.4412 -122.0350 298° West 455 524 40,000  Level FlightAware ADS-B
04:44PM 47.4704 -122.1190 297° West 457 526 40,000  Level FlightAware ADS-B
04:44PM 47.4994 -122.2030 297° West 458 527 40,000  Level FlightAware ADS-B
04:45PM 47.5309 -122.2940 297° West 458 527 40,000  Level FlightAware ADS-B
04:45PM 47.5606 -122.3800 297° West 457 526 40,000  Level FlightAware ADS-B
04:46PM 47.5892 -122.4640 297° West 456 525 40,000  Level FlightAware ADS-B
04:46PM 47.6195 -122.5520 297° West 456 525 40,000  Level FlightAware ADS-B
04:47PM 47.6482 -122.6370 297° West 457 526 40,000  Level FlightAware ADS-B
04:47PM 47.6808 -122.7320 297° West 457 526 40,000  Level FlightAware ADS-B
04:48PM 47.7093 -122.8170 297° West 456 525 40,000  Level FlightAware ADS-B
04:48PM 47.7378 -122.9010 297° West 458 527 40,000  Level FlightAware ADS-B
04:49PM 47.7668 -122.9880 296° West 457 526 40,000  Level FlightAware ADS-B
04:49PM 47.7950 -123.0720 297° West 457 526 40,000  Level FlightAware ADS-B
04:50PM 47.8260 -123.1640 297° West 458 527 40,000  Level FlightAware ADS-B
04:50PM 47.8543 -123.2500 296° West 461 531 40,000  Level FlightAware ADS-B
04:51PM 47.8833 -123.3370 296° West 458 527 40,000  Level FlightAware ADS-B
04:51PM 47.9135 -123.4280 296° West 460 529 40,000  Level FlightAware ADS-B
04:52PM 47.9417 -123.5140 296° West 462 532 40,000  Level FlightAware ADS-B
04:52PM 47.9698 -123.5990 296° West 462 532 40,000  Level FlightAware ADS-B
04:53PM 47.9980 -123.6860 296° West 458 527 40,000  Level FlightAware ADS-B
04:53PM 48.0258 -123.7710 296° West 451 519 40,000  Level FlightAware ADS-B
04:54PM 48.0549 -123.8600 296° West 453 521 40,000  Level FlightAware ADS-B
04:54PM 48.0833 -123.9480 296° West 454 522 40,000  Level FlightAware ADS-B
04:55PM 48.1106 -124.0330 296° West 454 522 40,000  Level FlightAware ADS-B
04:55PM 48.1401 -124.1240 296° West 454 522 40,000  Level FlightAware ADS-B
04:56PM 48.1674 -124.2100 295° West 455 524 40,000  Level FlightAware ADS-B
04:56PM 48.1952 -124.2960 296° West 455 524 40,000  Level FlightAware ADS-B
04:57PM 48.2233 -124.3850 295° West 456 525 40,000  Level FlightAware ADS-B
04:57PM 48.2505 -124.4710 295° West 456 525 40,000  Level FlightAware ADS-B
04:58PM 48.2778 -124.5570 296° West 454 522 40,000  Level FlightAware ADS-B
04:58PM 48.2893 -124.5890 298° West 460 529 40,000  Level FlightAware ADS-B
04:59PM 48.3790 -124.7400 312° West 478 550 40,000  Level FlightAware
05:00PM 48.4588 -124.8540 317° Northwest 480 552 40,000  Level FlightAware ADS-B
05:01PM 48.5170 -124.9380 316° Northwest 482 555 40,000  Level FlightAware
05:01PM 48.5850 -125.0360 316° Northwest 486 559 40,000  Level FlightAware
05:02PM 48.6490 -125.1290 316° Northwest 487 560 40,000  Level FlightAware
05:03PM 48.7140 -125.2230 316° Northwest 490 564 40,000  Level FlightAware
05:03PM 48.7840 -125.3250 316° Northwest 489 563 40,000  Level FlightAware
05:04PM 48.8470 -125.4170 316° Northwest 480 552 40,000  Level FlightAware
05:05PM 48.9100 -125.5100 316° Northwest 481 554 40,000  Level FlightAware
05:05PM 48.9700 -125.5990 316° Northwest 487 560 40,000  Level FlightAware
05:06PM 49.0370 -125.6980 316° Northwest 488 562 40,000  Level FlightAware
05:07PM 49.0890 -125.7750 316° Northwest 487 560 40,000  Level FlightAware
05:07PM 49.1690 -125.8950 316° Northwest 487 560 40,000  Level FlightAware
05:08PM 49.2370 -125.9960 316° Northwest 485 558 40,000  Level FlightAware
05:09PM 49.3010 -126.0930 315° West 482 555 40,000  Level FlightAware
05:09PM 49.3600 -126.1820 316° Northwest 482 555 40,000  Level FlightAware
05:10PM 49.4350 -126.2950 316° Northwest 481 554 40,000  Level FlightAware
05:11PM 49.4940 -126.3850 315° West 482 555 40,000  Level FlightAware
05:12PM 49.5830 -126.5220 315° West 482 555 40,000  Level FlightAware
05:13PM 49.6580 -126.6370 315° West 480 552 40,000  Level FlightAware
05:13PM 49.7230 -126.7380 315° West 477 549 40,000  Level FlightAware
05:14PM 49.7910 -126.8430 315° West 477 549 40,000  Level FlightAware
05:15PM 49.8530 -126.9400 315° West 478 550 40,000  Level FlightAware
05:16PM 49.9570 -127.1030 315° West 478 550 40,000  Level FlightAware
05:17PM 50.0440 -127.2390 315° West 481 554 40,000  Level FlightAware
05:17PM 50.1070 -127.3380 315° West 480 552 40,000  Level FlightAware
05:18PM 50.1680 -127.4360 314° West 479 551 40,000  Level FlightAware
05:19PM 50.2420 -127.5550 314° West 474 545 40,000  Level FlightAware
05:20PM 50.3040 -127.6700 310° West 472 543 40,000  Level FlightAware
05:20PM 50.3520 -127.7630 309° West 469 540 40,000  Level FlightAware
05:21PM 50.4170 -127.8890 309° West 469 540 40,000  Level FlightAware
05:22PM 50.4710 -127.9940 309° West 470 541 40,000  Level FlightAware
05:23PM 50.5520 -128.1520 309° West 472 543 40,000  Level FlightAware
05:24PM 50.6180 -128.2820 309° West 470 541 40,000  Level FlightAware
05:24PM 50.6740 -128.3910 309° West 470 541 40,000  Level FlightAware
05:25PM 50.7140 -128.4680 309° West 470 541 40,000  Level FlightAware
05:26PM 50.7720 -128.5810 309° West 470 541 40,000  Level FlightAware
05:26PM 50.8110 -128.6580 309° West 470 541 40,000  Level FlightAware
05:28PM 50.8950 -128.8220 309° West 470 541 40,000  Level FlightAware
05:28PM 50.9370 -128.9040 309° West 470 541 40,000  Level FlightAware
05:29PM 50.9800 -128.9890 309° West 470 541 40,000  Level FlightAware
05:29PM 51.0220 -129.0710 309° West 470 541 40,000  Level FlightAware
05:30PM 51.0780 -129.1810 309° West 470 541 40,000  Level FlightAware
05:31PM 51.1250 -129.2740 309° West 470 541 40,000  Level FlightAware
05:32PM 51.1790 -129.3800 309° West 470 541 40,000  Level FlightAware
05:32PM 51.2210 -129.4620 309° West 470 541 40,000  Level FlightAware
05:33PM 51.3833 -129.8833 309° West 480 552 40,000  Level Vancouver Center
05:34PM 51.4667 -130.0500 309° West 480 552 40,000  Level Vancouver Center
05:35PM 51.5333 -130.2167 303° West 480 552 40,000  Level Vancouver Center
05:36PM 51.6333 -130.4000 311° West 480 552 40,000  Level Vancouver Center
05:37PM 51.7000 -130.5667 303° West 480 552 40,000  Level Vancouver Center
05:38PM 51.7667 -130.7333 303° West 480 552 40,000  Level Vancouver Center
05:39PM 51.8667 -130.9167 311° West 480 552 40,000  Level Vancouver Center
05:40PM 51.9333 -131.0833 303° West 480 552 40,000  Level Vancouver Center
05:41PM 52.0167 -131.1833 324° Northwest 480 552 40,000  Level Anchorage Center
05:42PM 52.0833 -131.3500 303° West 480 552 40,000  Level Anchorage Center
05:43PM 52.1667 -131.5333 307° West 480 552 40,000  Level Anchorage Center
05:44PM 52.2667 -131.8000 302° West 480 552 40,000  Level Vancouver Center
05:45PM 52.3333 -131.9500 306° West 480 552 40,000  Level Vancouver Center
05:46PM 52.4000 -132.1500 299° West 470 541 40,000  Level Vancouver Center
05:47PM 52.4833 -132.3000 312° West 470 541 40,000  Level Vancouver Center
05:48PM 52.5667 -132.4833 307° West 480 552 40,000  Level Vancouver Center
05:49PM 52.6333 -132.6667 301° West 480 552 40,000  Level Vancouver Center
05:50PM 52.7167 -132.8500 307° West 480 552 40,000  Level Vancouver Center
05:51PM 52.8000 -133.0333 307° West 480 552 40,000  Level Vancouver Center
05:52PM 52.8667 -133.2167 301° West 480 552 40,000  Level Vancouver Center
05:53PM 52.9333 -133.3167 318° Northwest 480 552 40,000  Level Anchorage Center
05:54PM 53.0000 -133.5000 301° West 480 552 40,000  Level Anchorage Center
05:55PM 53.0833 -133.6833 307° West 480 552 40,000  Level Anchorage Center
05:56PM 53.1500 -133.8667 301° West 480 552 40,000  Level Anchorage Center
05:57PM 53.2333 -134.0500 307° West 480 552 40,000  Level Anchorage Center
05:58PM 53.3000 -134.2333 301° West 480 552 40,000  Level Anchorage Center
05:59PM 53.3833 -134.4833 299° West 480 552 40,000  Level Vancouver Center
06:00PM 53.4667 -134.7000 303° West 480 552 40,000  Level Vancouver Center
06:01PM 53.5333 -134.8667 304° West 490 564 40,000  Level Vancouver Center
06:02PM 53.6167 -135.0833 303° West 490 564 40,000  Level Vancouver Center
06:03PM 53.6833 -135.2667 302° West 490 564 40,000  Level Vancouver Center
06:04PM 53.7667 -135.4667 305° West 490 564 40,000  Level Vancouver Center
06:05PM 53.8333 -135.5667 319° Northwest 490 564 40,000  Level Anchorage Center
06:06PM 53.9000 -135.7667 300° West 490 564 40,000  Level Anchorage Center
06:07PM 53.9833 -135.9667 305° West 490 564 40,000  Level Anchorage Center
06:08PM 54.0500 -136.1500 302° West 490 564 40,000  Level Anchorage Center
06:09PM 54.1000 -136.4500 286° West 490 564 40,000  Level Vancouver Center
06:10PM 54.1667 -136.5667 314° West 490 564 40,000  Level Anchorage Center
06:11PM 54.2333 -136.7667 300° West 480 552 40,000  Level Anchorage Center
06:12PM 54.3000 -137.0667 291° West 490 564 40,000  Level Vancouver Center
06:13PM 54.3500 -137.2500 295° West 490 564 40,000  Level Vancouver Center
06:14PM 54.4167 -137.4500 300° West 490 564 40,000  Level Vancouver Center
06:15PM 54.4833 -137.6667 298° West 490 564 40,000  Level Vancouver Center
06:16PM 54.5500 -137.8667 300° West 500 575 40,000  Level Vancouver Center
06:17PM 54.6167 -138.0667 300° West 490 564 40,000  Level Vancouver Center
06:18PM 54.6833 -138.2167 308° West 480 552 40,000  Level Anchorage Center
06:19PM 54.7333 -138.4333 292° West 490 564 40,000  Level Anchorage Center
06:20PM 54.8000 -138.6333 300° West 490 564 40,000  Level Anchorage Center
06:21PM 54.8667 -138.9167 292° West 500 575 40,000  Level Vancouver Center
06:22PM 54.9167 -139.1500 291° West 500 575 40,000  Level Vancouver Center
06:23PM 54.9833 -139.2833 311° West 490 564 40,000  Level Anchorage Center
06:24PM 55.0500 -139.5000 298° West 490 564 40,000  Level Anchorage Center
06:25PM 55.1000 -139.7833 287° West 500 575 40,000  Level Vancouver Center
06:26PM 55.1500 -140.0000 292° West 500 575 40,000  Level Vancouver Center
06:27PM 55.2167 -140.1333 311° West 500 575 40,000  Level Anchorage Center
06:28PM 55.2833 -140.3500 298° West 490 564 40,000  Level Anchorage Center
06:29PM 55.3333 -140.5667 292° West 500 575 40,000  Level Anchorage Center
06:30PM 55.4000 -140.8000 297° West 510 587 40,000  Level Anchorage Center
06:31PM 55.4500 -141.0000 294° West 470 541 40,000  Level Anchorage Center
06:32PM 55.5167 -141.2167 299° West 470 541 40,000  Level Anchorage Center
06:33PM 55.5667 -141.4333 292° West 490 564 40,000  Level Anchorage Center
06:34PM 55.6333 -141.6667 297° West 480 552 40,000  Level Anchorage Center
06:35PM 55.6833 -141.8667 294° West 480 552 40,000  Level Anchorage Center
06:36PM 55.7333 -142.1000 291° West 490 564 40,000  Level Anchorage Center
06:37PM 55.7833 -142.3333 291° West 480 552 40,000  Level Anchorage Center
06:38PM 55.8500 -142.5500 299° West 490 564 40,000  Level Anchorage Center
06:39PM 55.9000 -142.7833 291° West 490 564 40,000  Level Anchorage Center
06:40PM 55.9500 -142.9833 294° West 470 541 40,000  Level Anchorage Center
06:41PM 56.0000 -143.2167 291° West 490 564 40,000  Level Anchorage Center
06:42PM 56.0500 -143.4500 291° West 500 575 40,000  Level Anchorage Center
06:43PM 56.1167 -143.6833 297° West 490 564 40,000  Level Anchorage Center
06:44PM 56.1667 -143.9000 293° West 490 564 40,000  Level Anchorage Center
06:45PM 56.2167 -144.1333 291° West 490 564 40,000  Level Anchorage Center
06:46PM 56.2667 -144.3667 291° West 490 564 40,000  Level Anchorage Center
06:47PM 56.3167 -144.5833 293° West 490 564 40,000  Level Anchorage Center
06:48PM 56.3667 -144.8167 291° West 480 552 40,000  Level Anchorage Center
06:49PM 56.4167 -145.0500 291° West 490 564 40,000  Level Anchorage Center
06:50PM 56.4667 -145.2833 291° West 490 564 40,000  Level Anchorage Center
06:51PM 56.5167 -145.5000 293° West 480 552 40,000  Level Anchorage Center
06:52PM 56.5667 -145.7333 291° West 480 552 40,000  Level Anchorage Center
06:53PM 56.6167 -145.9667 291° West 480 552 40,000  Level Anchorage Center
06:54PM 56.6667 -146.1833 293° West 480 552 40,000  Level Anchorage Center
06:55PM 56.7000 -146.4167 285° West 480 552 40,000  Level Anchorage Center
06:56PM 56.7500 -146.6500 291° West 470 541 40,000  Level Anchorage Center
06:57PM 56.8000 -146.8667 293° West 470 541 40,000  Level Anchorage Center
06:58PM 56.8500 -147.1167 290° West 480 552 40,000  Level Anchorage Center
06:59PM 56.8833 -147.3333 286° West 480 552 40,000  Level Anchorage Center
07:00PM 56.9333 -147.5667 292° West 470 541 40,000  Level Anchorage Center
07:01PM 56.9833 -147.8000 292° West 480 552 40,000  Level Anchorage Center
07:02PM 57.0167 -148.0333 285° West 480 552 40,000  Level Anchorage Center
07:03PM 57.0667 -148.2667 292° West 480 552 40,000  Level Anchorage Center
07:04PM 57.1000 -148.5000 285° West 480 552 40,000  Level Anchorage Center
07:05PM 57.1500 -148.7333 292° West 470 541 40,000  Level Anchorage Center
07:06PM 57.1833 -148.9667 285° West 480 552 40,000  Level Anchorage Center
07:07PM 57.2333 -149.2000 292° West 470 541 40,000  Level Anchorage Center
07:08PM 57.2667 -149.4500 284° West 470 541 40,000  Level Anchorage Center
07:09PM 57.3167 -149.6833 292° West 480 552 40,000  Level Anchorage Center
07:10PM 57.3667 -149.9167 292° West 480 552 40,000  Level Anchorage Center
07:11PM 57.4000 -150.1667 284° West 480 552 40,000  Level Anchorage Center
07:12PM 57.4333 -150.4000 285° West 480 552 40,000  Level Anchorage Center
07:13PM 57.4667 -150.6500 284° West 480 552 40,000  Level Anchorage Center
07:14PM 57.4833 -150.8833 278° West 470 541 40,000  Level Anchorage Center
07:15PM 57.5167 -151.1667 282° West 470 541 40,000  Level Anchorage Center
07:16PM 57.5333 -151.4167 277° West 480 552 40,000  Level Anchorage Center
07:17PM 57.5667 -151.6500 285° West 470 541 40,000  Level Anchorage Center
07:18PM 57.5833 -151.9000 277° West 470 541 40,000  Level Anchorage Center
07:19PM 57.6000 -152.1500 277° West 480 552 40,000  Level Anchorage Center
07:20PM 57.6167 -152.4000 277° West 490 564 40,000  Level Anchorage Center
07:21PM 57.6333 -152.6500 277° West 480 552 40,000  Level Anchorage Center
07:22PM 57.6500 -152.9000 277° West 480 552 40,000  Level Anchorage Center
07:23PM 57.6833 -153.1500 284° West 480 552 40,000  Level Anchorage Center
07:24PM 57.7000 -153.4000 277° West 490 564 40,000  Level Anchorage Center
07:25PM 57.7167 -153.6500 277° West 480 552 40,000  Level Anchorage Center
07:26PM 57.7333 -153.9000 277° West 480 552 40,000  Level Anchorage Center
07:27PM 57.7500 -154.1333 278° West 470 541 40,000  Level Anchorage Center
07:28PM 57.7667 -154.3833 277° West 480 552 40,000  Level Anchorage Center
07:29PM 57.7833 -154.6333 277° West 470 541 40,000  Level Anchorage Center
07:30PM 57.8000 -154.8833 277° West 480 552 40,000  Level Anchorage Center
07:32PM 57.8145 -155.1313 276° West  Level FlightAware Approximate
07:32PM 57.8167 -155.4000 276° West 480 552 40,000  Level Anchorage Center
07:33PM 57.8333 -155.6500 277° West 480 552 40,000  Level Anchorage Center
07:35PM 57.8500 -155.9000 277° West 480 552 40,000  Level Anchorage Center
07:36PM 57.8667 -156.1667 277° West 470 541 40,000  Level Anchorage Center
07:37PM 57.8667 -156.4167 270° West 470 541 40,000  Level Anchorage Center
07:38PM 57.8833 -156.6667 277° West 470 541 40,000  Level Anchorage Center
07:39PM 57.9000 -156.9000 278° West 480 552 40,000  Level Anchorage Center
07:40PM 57.9167 -157.1500 277° West 470 541 40,000  Level Anchorage Center
07:41PM 57.9333 -157.6167 274° West 480 552 40,000  Level Anchorage Center
07:43PM 57.9333 -157.9000 270° West 470 541 40,000  Level Anchorage Center
07:44PM 57.9500 -158.1667 277° West 480 552 40,000  Level Anchorage Center
07:45PM 57.9500 -158.4167 270° West 480 552 40,000  Level Anchorage Center
07:46PM 57.9667 -158.6667 277° West 470 541 40,000  Level Anchorage Center
07:47PM 57.9667 -158.9167 270° West 480 552 40,000  Level Anchorage Center
07:48PM 57.9667 -159.1667 270° West 480 552 40,000 120 Level Anchorage Center
07:49PM 57.9833 -159.4167 277° West 480 552 40,300 480 Climbing Anchorage Center
07:50PM 57.9833 -159.6667 270° West 470 541 41,000 300 Climbing Anchorage Center
07:51PM 58.0000 -159.9167 277° West 470 541 41,000  Level Anchorage Center
07:52PM 58.0000 -160.1833 270° West 480 552 41,000  Level Anchorage Center
07:53PM 58.0167 -160.4167 278° West 470 541 41,000  Level Anchorage Center
07:54PM 58.0167 -160.6667 270° West 460 529 41,000  Level Anchorage Center
07:55PM 58.0167 -160.9167 270° West 470 541 41,000  Level Anchorage Center
07:56PM 58.0333 -161.1667 277° West 470 541 41,000  Level Anchorage Center
07:57PM 58.0333 -161.4167 270° West 460 529 41,000  Level Anchorage Center
07:58PM 58.0500 -161.6667 277° West 480 552 41,000  Level Anchorage Center
07:59PM 58.0500 -161.9167 270° West 470 541 41,000  Level Anchorage Center
08:00PM 58.0500 -162.1667 270° West 470 541 41,000  Level Anchorage Center
08:01PM 58.0667 -162.4333 277° West 500 575 41,000  Level Anchorage Center
08:02PM 58.0667 -162.6667 270° West 470 541 41,000  Level Anchorage Center
08:03PM 58.0667 -162.9167 270° West 470 541 41,000  Level Anchorage Center
08:03PM 58.0667 -163.0667 270° West 470 541 41,000  Level Anchorage Center
08:04PM 58.0667 -163.3167 270° West 470 541 41,000  Level Anchorage Center
08:05PM 58.0833 -163.5667 277° West 470 541 41,000  Level Anchorage Center
08:06PM 58.0833 -163.8167 270° West 470 541 41,000  Level Anchorage Center
08:07PM 58.0833 -164.0667 270° West 460 529 41,000  Level Anchorage Center
08:08PM 58.0833 -164.3167 270° West 470 541 41,000  Level Anchorage Center
08:09PM 58.0833 -164.5667 270° West 470 541 41,000  Level Anchorage Center
08:10PM 58.0833 -164.8167 270° West 480 552 41,000  Level Anchorage Center
08:11PM 58.0833 -165.0667 270° West 480 552 41,000  Level Anchorage Center
08:12PM 58.0833 -165.3167 270° West 470 541 41,000  Level Anchorage Center
08:13PM 58.0833 -165.5667 270° West 470 541 41,000  Level Anchorage Center
08:14PM 58.0833 -165.8167 270° West 470 541 41,000  Level Anchorage Center
08:15PM 58.0833 -166.0667 270° West 470 541 41,000  Level Anchorage Center
08:16PM 58.0667 -166.3167 263° West 470 541 41,000  Level Anchorage Center
08:17PM 58.0667 -166.5667 270° West 470 541 41,000  Level Anchorage Center
08:18PM 58.0667 -166.8167 270° West 450 518 41,000  Level Anchorage Center
08:19PM 58.0667 -167.0500 270° West 460 529 41,000  Level Anchorage Center
08:20PM 58.0500 -167.3000 263° West 470 541 41,000  Level Anchorage Center
08:21PM 58.0500 -167.5500 270° West 470 541 41,000  Level Anchorage Center
08:22PM 58.0500 -167.8000 270° West 460 529 41,000  Level Anchorage Center
08:23PM 58.0333 -168.0500 263° West 470 541 41,000  Level Anchorage Center
08:24PM 58.0333 -168.3000 270° West 470 541 41,000  Level Anchorage Center
08:25PM 58.0333 -168.5500 270° West 470 541 41,000  Level Anchorage Center
08:26PM 58.0167 -168.8000 263° West 470 541 41,000  Level Anchorage Center
08:27PM 58.0167 -169.0333 270° West 460 529 41,000  Level Anchorage Center
08:28PM 58.0000 -169.2833 263° West 470 541 41,000  Level Anchorage Center
08:29PM 58.0000 -169.5333 270° West 470 541 41,000  Level Anchorage Center
08:30PM 57.9833 -169.7833 263° West 470 541 41,000  Level Anchorage Center
08:31PM 57.9833 -170.0333 270° West 470 541 41,000  Level Anchorage Center
08:32PM 57.9667 -170.2833 263° West 480 552 41,000  Level Anchorage Center
08:33PM 57.9500 -170.5167 262° West 460 529 41,000  Level Anchorage Center
08:34PM 57.9500 -170.7667 270° West 460 529 41,000  Level Anchorage Center
08:35PM 57.9167 -171.0000 255° West 460 529 41,000  Level Anchorage Center
08:36PM 57.8833 -171.2333 255° West 460 529 41,000  Level Anchorage Center
08:37PM 57.8500 -171.4833 256° West 470 541 41,000  Level Anchorage Center
08:38PM 57.8333 -171.7167 262° West 470 541 41,000  Level Anchorage Center
08:39PM 57.8000 -171.9500 255° West 460 529 41,000  Level Anchorage Center
08:40PM 57.7667 -172.2000 256° West 460 529 41,000  Level Anchorage Center
08:41PM 57.7333 -172.4333 255° West 460 529 41,000  Level Anchorage Center
08:42PM 57.7000 -172.6667 255° West 470 541 41,000  Level Anchorage Center
08:43PM 57.6833 -172.9000 262° West 450 518 41,000  Level Anchorage Center
08:44PM 57.6333 -173.1333 248° West 460 529 41,000  Level Anchorage Center
08:45PM 57.6167 -173.3667 263° West 470 541 41,000  Level Anchorage Center
08:46PM 57.5667 -173.6167 250° West 470 541 41,000  Level Anchorage Center
08:47PM 57.5500 -173.8500 263° West 470 541 41,000  Level Anchorage Center
08:48PM 57.5167 -174.0833 255° West 470 541 41,000  Level Anchorage Center
08:49PM 57.4667 -174.3167 248° West 460 529 41,000  Level Anchorage Center
08:50PM 57.4333 -174.5500 255° West 460 529 41,000  Level Anchorage Center
08:51PM 57.4000 -174.7833 255° West 460 529 41,000  Level Anchorage Center
08:52PM 57.3667 -175.0167 255° West 470 541 41,000  Level Anchorage Center
08:53PM 57.3333 -175.2500 255° West 470 541 41,000  Level Anchorage Center
08:56PM 57.2915 -175.5136 254° West  Level FlightAware Approximate
09:01PM 57.0667 -176.9167 253° West 469 540 41,000  Level Anchorage Center
09:03PM 57.0248 -177.1046 253° West  Level FlightAware Approximate
09:04PM 56.9850 -177.3300 252° West  Level FlightAware Approximate
09:05PM 56.9452 -177.5551 252° West  Level FlightAware Approximate
09:06PM 56.9052 -177.7799 252° West  Level FlightAware Approximate
09:07PM 56.8261 -178.2729 251° West 469 540 41,000  Level FlightAware Transoceanic
09:08PM 56.7845 -178.4972 251° West 469 540 41,000  Level FlightAware Transoceanic
09:09PM 56.7426 -178.7210 251° West 469 540 41,000  Level FlightAware Transoceanic
09:10PM 56.7003 -178.9443 251° West 469 540 41,000  Level FlightAware Transoceanic
09:10PM 56.6833 -179.0833 250° West 473 544 41,000  Level Anchorage Center
09:11PM 56.6576 -179.1671 251° West 469 540 41,000  Level FlightAware Transoceanic
09:12PM 56.6145 -179.3894 250° West 469 540 41,000  Level FlightAware Transoceanic
09:13PM 56.5709 -179.6112 250° West 469 540 41,000  Level FlightAware Transoceanic
09:14PM 56.5270 -179.8325 250° West 469 540 41,000  Level FlightAware Transoceanic
09:15PM 56.4827 179.9467 250° West 469 540 41,000  Level FlightAware Transoceanic
09:16PM 56.4381 179.7265 250° West 469 540 41,000  Level FlightAware Transoceanic
09:17PM 56.4073 179.5510 249° West 473 544 41,000  Level FlightAware Transoceanic
09:18PM 56.3599 179.3254 249° West 473 544 41,000  Level FlightAware Transoceanic
09:19PM 56.3120 179.1003 249° West 473 544 41,000  Level FlightAware Transoceanic
09:20PM 56.2638 178.8757 249° West 473 544 41,000  Level FlightAware Transoceanic
09:20PM 56.2500 178.8000 248° West 472 543 41,000  Level Anchorage Center
09:21PM 56.2151 178.6518 249° West 473 544 41,000  Level FlightAware Transoceanic
09:22PM 56.1660 178.4284 248° West 473 544 41,000  Level FlightAware Transoceanic
09:23PM 56.1165 178.2056 248° West 473 544 41,000  Level FlightAware Transoceanic
09:24PM 56.0667 177.9833 241° Southwest 473 544 41,000  Level FlightAware Transoceanic
09:24PM 56.0667 177.9833 241° Southwest 471 542 41,000  Level Anchorage Center
09:25PM 56.0041 177.7855 240° Southwest 473 544 41,000  Level FlightAware Transoceanic
09:26PM 55.9411 177.5882 240° Southwest 472 543 41,000  Level FlightAware Transoceanic
09:27PM 55.8779 177.3916 240° Southwest 472 543 41,000  Level FlightAware Transoceanic
09:27PM 55.8000 177.1833 239° Southwest 470 541 41,000  Level Anchorage Center
09:28PM 55.8144 177.1957 240° Southwest 472 543 41,000  Level FlightAware Transoceanic
09:29PM 55.7505 177.0004 240° Southwest 472 543 41,000  Level FlightAware Transoceanic
09:29PM 55.7429 176.9482 247° West  Level Estimated
09:29PM 55.6667 176.8000 247° West 470 541 41,000  Level Anchorage Center
09:30PM 55.6720 176.7625 240° Southwest 471 542 41,000  Level FlightAware Transoceanic
09:30PM 55.6167 176.6000 246° West 480 552 41,000  Level Anchorage Center
09:31PM 55.6051 176.5615 239° Southwest 471 542 41,000  Level FlightAware Transoceanic
09:31PM 55.5500 176.4000 240° Southwest 480 552 41,000  Level Anchorage Center
09:32PM 55.5378 176.3611 239° Southwest 471 542 41,000  Level FlightAware Transoceanic
09:32PM 55.4667 176.1667 238° Southwest 480 552 41,000  Level Anchorage Center
09:33PM 55.4702 176.1614 239° Southwest 471 542 41,000  Level FlightAware Transoceanic
09:33PM 55.4167 176.0000 242° Southwest 480 552 41,000  Level Anchorage Center
09:35PM 55.3441 175.7880 239° Southwest  Level FlightAware Approximate
09:38PM 55.0667 175.0000 238° Southwest 480 552 41,000  Level Anchorage Center
09:39PM 54.9833 174.8000 234° Southwest 470 541 41,000  Level Anchorage Center
09:40PM 54.9333 174.6167 245° Southwest 470 541 41,000  Level Anchorage Center
09:41PM 54.8500 174.4167 234° Southwest 470 541 41,000  Level Anchorage Center
09:42PM 54.8812 174.4770 239° Southwest  Level FlightAware Approximate
09:42PM 54.7833 174.2500 235° Southwest 470 541 41,000  Level Anchorage Center
09:43PM 54.8139 174.2922 238° Southwest  Level FlightAware Approximate
09:43PM 54.7167 174.0333 242° Southwest 470 541 41,000  Level Anchorage Center
09:44PM 54.7463 174.1080 238° Southwest  Level FlightAware Approximate
09:44PM 54.6500 173.8667 235° Southwest 470 541 41,000  Level Anchorage Center
09:45PM 54.5667 173.6667 234° Southwest 470 541 41,000  Level Anchorage Center
09:46PM 54.5167 173.5000 243° Southwest 470 541 41,000  Level Anchorage Center
09:47PM 54.4333 173.2833 237° Southwest 480 552 41,000  Level Anchorage Center
09:48PM 54.3500 173.0833 234° Southwest 470 541 41,000  Level Anchorage Center
09:50PM 54.2756 172.8758 239° Southwest  Level FlightAware Approximate
09:50PM 54.2167 172.7167 239° Southwest 460 529 41,000  Level Anchorage Center
09:51PM 54.1500 172.5500 236° Southwest 470 541 41,000  Level Anchorage Center
09:52PM 54.0667 172.3500 235° Southwest 480 552 41,000  Level Anchorage Center
09:53PM 54.0000 172.1833 236° Southwest 520 598 41,000  Level Anchorage Center
09:54PM 53.9167 172.0000 232° Southwest 470 541 41,000  Level Anchorage Center
09:55PM 53.8333 171.7833 237° Southwest 500 575 41,000  Level Anchorage Center
09:56PM 53.7667 171.6333 233° Southwest 440 506 41,000  Level Anchorage Center
09:57PM 53.6833 171.4500 233° Southwest 460 529 41,000  Level Anchorage Center
09:58PM 53.6167 171.2833 236° Southwest 470 541 41,000  Level Anchorage Center
09:59PM 53.5333 171.1000 233° Southwest 480 552 41,000  Level Anchorage Center
10:00PM 53.4667 170.9333 236° Southwest 470 541 41,000  Level Anchorage Center
10:02PM 53.3839 170.7440 234° Southwest  Level FlightAware Approximate
10:02PM 53.3000 170.5500 234° Southwest 470 541 41,000  Level Anchorage Center
10:03PM 53.2167 170.4000 227° Southwest 480 552 41,000  Level Anchorage Center
10:04PM 53.1333 170.2000 235° Southwest 490 564 41,000  Level Anchorage Center
10:05PM 53.0667 170.0500 234° Southwest 480 552 41,000  Level Anchorage Center
10:06PM 52.9667 169.8500 230° Southwest 500 575 41,000  Level Anchorage Center
10:07PM 52.9167 169.6833 244° Southwest 470 541 41,000  Level Anchorage Center
10:08PM 52.8500 169.4833 241° Southwest 470 541 41,000  Level Anchorage Center
10:09PM 52.8000 169.3167 244° Southwest 480 552 41,000  Level Anchorage Center
10:10PM 52.7333 169.1000 243° Southwest 480 552 41,000  Level Anchorage Center
10:11PM 52.6500 168.9000 236° Southwest 480 552 41,000  Level Anchorage Center
10:12PM 52.6000 168.7333 244° Southwest 460 529 41,000  Level Anchorage Center
10:13PM 52.5167 168.5333 236° Southwest 480 552 41,000  Level Anchorage Center
10:14PM 52.4833 168.3833 250° West 460 529 41,000  Level Anchorage Center
10:15PM 52.4000 168.1667 238° Southwest 480 552 41,000  Level Anchorage Center
10:16PM 52.3500 168.0167 241° Southwest 470 541 41,000  Level Anchorage Center
10:18PM 52.2000 167.6167 239° Southwest 480 552 41,000  Level Anchorage Center
10:19PM 52.1500 167.4500 244° Southwest 460 529 41,000  Level Anchorage Center
10:22PM 52.0784 167.2580 239° Southwest  Level FlightAware Approximate
10:27PM 51.6500 166.1000 238° Southwest 465 535 41,000  Level Anchorage Center
10:29PM 51.6005 166.0132 239° Southwest  Level FlightAware Approximate
10:30PM 51.5312 165.8375 238° Southwest  Level FlightAware Approximate
10:30PM 51.4333 165.5500 237° Southwest 466 536 41,000  Level Anchorage Center
10:31PM 51.4616 165.6624 238° Southwest  Level FlightAware Approximate
10:32PM 51.3924 165.4871 238° Southwest  Level FlightAware Approximate
10:33PM 51.2276 165.0470 237° Southwest 465 535 41,000  Level FlightAware Transoceanic
10:34PM 51.1586 164.8803 236° Southwest 465 535 41,000  Level FlightAware Transoceanic
10:35PM 51.0893 164.7142 236° Southwest 465 535 41,000  Level FlightAware Transoceanic
10:36PM 51.0197 164.5485 236° Southwest 466 536 41,000  Level FlightAware Transoceanic
10:37PM 50.9500 164.3833 237° Southwest 466 536 41,000  Level FlightAware Transoceanic
10:37PM 50.9833 164.4333 223° Southwest 472 543 41,000  Level Anchorage Center
10:37PM 50.9500 164.3833 237° Southwest 464 534 41,000  Level Anchorage Center
10:38PM 50.8790 164.2109 237° Southwest 466 536 41,000  Level FlightAware Transoceanic
10:39PM 50.8077 164.0390 237° Southwest 466 536 41,000  Level FlightAware Transoceanic
10:40PM 50.7362 163.8676 237° Southwest 466 536 41,000  Level FlightAware Transoceanic
10:41PM 50.6645 163.6968 236° Southwest 466 536 41,000  Level FlightAware Transoceanic
10:42PM 50.5924 163.5264 236° Southwest 466 536 41,000  Level FlightAware Transoceanic
10:43PM 50.5202 163.3566 236° Southwest 464 534 41,000  Level FlightAware Transoceanic
10:44PM 50.4477 163.1873 236° Southwest 464 534 41,000  Level FlightAware Transoceanic
10:45PM 50.3749 163.0186 236° Southwest 464 534 41,000  Level FlightAware Transoceanic
10:46PM 50.3019 162.8503 236° Southwest 464 534 41,000  Level FlightAware Transoceanic
10:46PM 50.3000 162.8333 236° Southwest 459 528 41,000  Level Anchorage Center
10:47PM 50.2287 162.6826 236° Southwest 464 534 41,000  Level FlightAware Transoceanic
10:48PM 50.1552 162.5154 235° Southwest 464 534 41,000  Level FlightAware Transoceanic
10:49PM 50.0815 162.3486 235° Southwest 464 534 41,000  Level FlightAware Transoceanic
10:50PM 50.0076 162.1824 235° Southwest 464 534 41,000  Level FlightAware Transoceanic
10:51PM 49.9334 162.0168 235° Southwest 464 534 41,000  Level FlightAware Transoceanic
10:52PM 49.9323 162.0076 235° Southwest 459 528 41,000  Level FlightAware Transoceanic
10:53PM 49.8580 161.8440 235° Southwest 459 528 41,000  Level FlightAware Transoceanic
10:54PM 49.7835 161.6808 235° Southwest 459 528 41,000  Level FlightAware Transoceanic
10:55PM 49.7088 161.5182 235° Southwest 459 528 41,000  Level FlightAware Transoceanic
10:56PM 49.6339 161.3561 234° Southwest 459 528 41,000  Level FlightAware Transoceanic
10:56PM 49.6000 161.2667 232° Southwest 458 527 41,000  Level Anchorage Center
10:57PM 49.5587 161.1945 234° Southwest 459 528 41,000  Level FlightAware Transoceanic
10:57PM 49.4833 161.0333 234° Southwest 456 525 41,000  Level Anchorage Center
10:58PM 49.4833 161.0333 234° Southwest 459 528 41,000  Level FlightAware Transoceanic
10:59PM 49.4034 160.8625 234° Southwest 459 528 41,000  Level FlightAware Transoceanic
11:00PM 49.3232 160.6922 234° Southwest 459 528 41,000  Level FlightAware Transoceanic
11:01PM 49.2428 160.5225 234° Southwest 459 528 41,000  Level FlightAware Transoceanic
11:02PM 49.1621 160.3533 234° Southwest 458 527 41,000  Level FlightAware Transoceanic
11:03PM 49.0812 160.1847 234° Southwest 458 527 41,000  Level FlightAware Transoceanic
11:04PM 49.0000 160.0167 233° Southwest 456 525 41,000  Level FlightAware Transoceanic
11:05PM 48.9235 159.8605 233° Southwest 456 525 41,000  Level FlightAware Transoceanic
11:06PM 48.8467 159.7049 233° Southwest 456 525 41,000  Level FlightAware Transoceanic
11:07PM 48.7697 159.5497 233° Southwest 456 525 41,000  Level FlightAware Transoceanic
11:08PM 48.6926 159.3951 233° Southwest 456 525 41,000  Level FlightAware Transoceanic
11:09PM 48.6152 159.2408 233° Southwest 456 525 41,000  Level FlightAware Transoceanic
11:10PM 48.5376 159.0871 233° Southwest 456 525 41,000  Level FlightAware Transoceanic
11:11PM 48.4599 158.9338 232° Southwest 456 525 41,000  Level FlightAware Transoceanic
11:12PM 48.3819 158.7810 232° Southwest 456 525 41,000  Level FlightAware Transoceanic
11:13PM 48.3037 158.6287 232° Southwest 456 525 41,000  Level FlightAware Transoceanic
11:14PM 48.2253 158.4768 232° Southwest 456 525 41,000  Level FlightAware Transoceanic
11:15PM 48.1467 158.3254 232° Southwest 456 525 41,000  Level FlightAware Transoceanic
11:16PM 48.0679 158.1745 232° Southwest 456 525 41,000  Level FlightAware Transoceanic
11:17PM 47.9889 158.0240 232° Southwest 456 525 41,000  Level FlightAware Transoceanic
11:18PM 47.9098 157.8740 232° Southwest 456 525 41,000  Level FlightAware Transoceanic
11:19PM 47.8304 157.7244 232° Southwest 456 525 41,000  Level FlightAware Transoceanic
11:20PM 47.7508 157.5753 231° Southwest 456 525 41,000  Level FlightAware Transoceanic
11:21PM 47.6711 157.4267 231° Southwest 456 525 41,000  Level FlightAware Transoceanic
11:22PM 47.5911 157.2785 231° Southwest 456 525 41,000  Level FlightAware Transoceanic
11:23PM 47.5110 157.1308 231° Southwest 456 525 41,000  Level FlightAware Transoceanic
11:24PM 47.4306 156.9835 231° Southwest 456 525 41,000  Level FlightAware Transoceanic
11:25PM 47.3501 156.8366 231° Southwest 456 525 41,000  Level FlightAware Transoceanic
11:26PM 47.2694 156.6902 231° Southwest 456 525 41,000  Level FlightAware Transoceanic
11:27PM 47.1885 156.5443 231° Southwest 456 525 41,000  Level FlightAware Transoceanic
11:28PM 47.1075 156.3988 231° Southwest 456 525 41,000  Level FlightAware Transoceanic
11:29PM 47.0262 156.2538 231° Southwest 456 525 41,000  Level FlightAware Transoceanic
11:30PM 46.9448 156.1091 230° Southwest 456 525 41,000  Level FlightAware Transoceanic
11:31PM 46.8631 155.9650 230° Southwest 456 525 41,000  Level FlightAware Transoceanic
11:32PM 46.7813 155.8212 230° Southwest 456 525 41,000  Level FlightAware Transoceanic
11:33PM 46.6993 155.6779 230° Southwest 456 525 41,000  Level FlightAware Transoceanic
11:34PM 46.6172 155.5351 230° Southwest 456 525 41,000  Level FlightAware Transoceanic
11:35PM 46.5349 155.3926 230° Southwest 456 525 41,000  Level FlightAware Transoceanic
11:36PM 46.4523 155.2506 230° Southwest 456 525 41,000  Level FlightAware Transoceanic
11:37PM 46.3696 155.1091 230° Southwest 456 525 41,000  Level FlightAware Transoceanic
11:38PM 46.2868 154.9679 230° Southwest 456 525 41,000  Level FlightAware Transoceanic
11:39PM 46.2037 154.8272 229° Southwest 456 525 41,000  Level FlightAware Transoceanic
11:40PM 46.1205 154.6869 229° Southwest 456 525 41,000  Level FlightAware Transoceanic
11:41PM 46.0372 154.5470 229° Southwest 456 525 41,000  Level FlightAware Transoceanic
11:42PM 45.9536 154.4076 229° Southwest 456 525 41,000  Level FlightAware Transoceanic
11:43PM 45.8699 154.2686 229° Southwest 456 525 41,000  Level FlightAware Transoceanic
11:44PM 45.7860 154.1300 229° Southwest 456 525 41,000  Level FlightAware Transoceanic
11:45PM 45.7019 153.9918 229° Southwest 456 525 41,000  Level FlightAware Transoceanic
11:46PM 45.6177 153.8540 229° Southwest 456 525 41,000  Level FlightAware Transoceanic
11:47PM 45.5241 153.7267 224° Southwest  Level FlightAware Approximate
11:48PM 45.4303 153.5998 224° Southwest  Level FlightAware Approximate
11:49PM 45.4362 153.5879 228° Southwest  Level FlightAware Approximate
11:50PM 45.3500 153.4507 228° Southwest  Level FlightAware Approximate
11:51PM 45.2636 153.3140 228° Southwest  Level FlightAware Approximate
11:52PM 45.1771 153.1776 228° Southwest  Level FlightAware Approximate
11:53PM 45.0904 153.0417 228° Southwest  Level FlightAware Approximate
11:54PM 45.0036 152.9061 228° Southwest  Level FlightAware Approximate
11:55PM 44.9166 152.7710 228° Southwest  Level FlightAware Approximate
11:56PM 44.8294 152.6363 228° Southwest  Level FlightAware Approximate
11:57PM 44.7421 152.5020 228° Southwest  Level FlightAware Approximate
11:58PM 44.6546 152.3681 227° Southwest  Level FlightAware Approximate
11:59PM 44.5670 152.2346 227° Southwest  Level FlightAware Approximate
12:00AM 44.4792 152.1015 227° Southwest  Level FlightAware Approximate
12:01AM 44.3913 151.9689 227° Southwest  Level FlightAware Approximate
12:02AM 44.3032 151.8366 227° Southwest  Level FlightAware Approximate
12:03AM 44.2150 151.7047 227° Southwest  Level FlightAware Approximate
12:04AM 44.1265 151.5732 227° Southwest  Level FlightAware Approximate
12:05AM 44.0380 151.4421 227° Southwest  Level FlightAware Approximate
12:06AM 43.9515 151.3145 227° Southwest  Level FlightAware Approximate
12:07AM 43.8648 151.1873 227° Southwest  Level FlightAware Approximate
12:08AM 43.7780 151.0605 227° Southwest  Level FlightAware Approximate
12:09AM 43.6910 150.9341 226° Southwest  Level FlightAware Approximate
12:10AM 43.6039 150.8081 226° Southwest  Level FlightAware Approximate
12:11AM 43.5167 150.6824 226° Southwest  Level FlightAware Approximate
12:12AM 43.4293 150.5570 226° Southwest  Level FlightAware Approximate
12:13AM 43.3418 150.4321 226° Southwest  Level FlightAware Approximate
12:14AM 43.2536 150.3067 226° Southwest  Level FlightAware Approximate
12:15AM 43.1653 150.1817 226° Southwest  Level FlightAware Approximate
12:16AM 43.0769 150.0571 226° Southwest  Level FlightAware Approximate
12:16AM 42.9490 149.8580 226° Southwest 490 564 41,000  Level FlightAware
12:17AM 42.9883 149.9328 226° Southwest  Level FlightAware Approximate
12:17AM 42.8630 149.7380 226° Southwest 491 565 41,000  Level FlightAware
12:18AM 42.8020 149.6540 225° Southwest 492 566 41,000  Level FlightAware
12:18AM 42.7480 149.5800 225° Southwest 490 564 41,000  Level FlightAware
12:19AM 42.6950 149.5040 227° Southwest 490 564 41,000  Level FlightAware
12:20AM 42.6330 149.4170 226° Southwest 490 564 41,000  Level FlightAware
12:21AM 42.5230 149.2680 225° Southwest 488 562 41,000  Level FlightAware
12:21AM 42.4620 149.1860 225° Southwest 491 565 41,000  Level FlightAware
12:22AM 42.3880 149.0860 225° Southwest 491 565 41,000  Level FlightAware
12:23AM 42.3240 148.9980 225° Southwest 491 565 41,000  Level FlightAware
12:23AM 42.2720 148.9280 225° Southwest 491 565 41,000  Level FlightAware
12:24AM 42.1840 148.8090 225° Southwest 497 572 41,000  Level FlightAware
12:25AM 42.1190 148.7220 225° Southwest 495 570 41,000  Level FlightAware
12:25AM 42.0630 148.6480 224° Southwest 495 570 41,000  Level FlightAware
12:26AM 41.9970 148.5600 225° Southwest 487 560 41,000  Level FlightAware
12:27AM 41.9250 148.4620 225° Southwest 495 570 41,000  Level FlightAware
12:27AM 41.8670 148.3880 224° Southwest 495 570 41,000  Level FlightAware
12:28AM 41.8030 148.3040 224° Southwest 495 570 41,000  Level FlightAware
12:29AM 41.7230 148.1960 225° Southwest 493 567 41,000  Level FlightAware
12:30AM 41.6560 148.1100 224° Southwest 493 567 41,000  Level FlightAware
12:30AM 41.5990 148.0360 224° Southwest 492 566 41,000  Level FlightAware
12:31AM 41.5390 147.9600 223° Southwest 492 566 41,000  Level FlightAware
12:32AM 41.4600 147.8570 224° Southwest 491 565 41,000  Level FlightAware
12:32AM 41.4020 147.7840 223° Southwest 491 565 41,000  Level FlightAware
12:33AM 41.3360 147.6990 224° Southwest 492 566 41,000  Level FlightAware
12:34AM 41.2630 147.6060 224° Southwest 491 565 41,000  Level FlightAware
12:34AM 41.1960 147.5220 223° Southwest 490 564 41,000  Level FlightAware
12:35AM 41.1320 147.4420 223° Southwest 490 564 41,000  Level FlightAware
12:36AM 41.0620 147.3530 224° Southwest 491 565 41,000  Level FlightAware
12:36AM 40.9870 147.2600 223° Southwest 492 566 41,000  Level FlightAware
12:37AM 40.8840 147.1300 224° Southwest 490 564 41,000  Level FlightAware
12:38AM 40.8190 147.0490 223° Southwest 490 564 41,000  Level FlightAware
12:39AM 40.7440 146.9560 223° Southwest 490 564 41,000  Level FlightAware
12:39AM 40.6860 146.8850 223° Southwest 490 564 41,000  Level FlightAware
12:40AM 40.6130 146.7940 223° Southwest 489 563 41,000  Level FlightAware
12:41AM 40.5450 146.7110 223° Southwest 487 560 41,000  Level FlightAware
12:41AM 40.4840 146.6360 223° Southwest 486 559 41,000  Level FlightAware
12:42AM 40.4160 146.5530 223° Southwest 484 557 41,000  Level FlightAware
12:43AM 40.3450 146.4660 223° Southwest 483 556 41,000  Level FlightAware
12:44AM 40.2660 146.3700 223° Southwest 484 557 41,000  Level FlightAware
12:44AM 40.1910 146.2790 223° Southwest 485 558 41,000  Level FlightAware
12:45AM 40.1270 146.2020 223° Southwest 486 559 41,000  Level FlightAware
12:46AM 40.0340 146.0910 222° Southwest 487 560 41,000  Level FlightAware
12:47AM 39.9820 146.0310 221° Southwest 487 560 41,000  Level FlightAware
12:47AM 39.9140 145.9500 222° Southwest 487 560 41,000  Level FlightAware
12:48AM 39.8630 145.8900 222° Southwest 487 560 41,000  Level FlightAware
12:49AM 39.7960 145.8120 222° Southwest 487 560 41,000  Level FlightAware
12:50AM 39.7420 145.7490 222° Southwest 487 560 41,000  Level FlightAware
12:50AM 39.6910 145.6890 222° Southwest 487 560 41,000  Level FlightAware
12:51AM 39.6390 145.6290 222° Southwest 487 560 41,000  Level FlightAware
12:52AM 39.5570 145.5320 222° Southwest 487 560 41,000  Level FlightAware
12:52AM 39.4890 145.4530 222° Southwest 487 560 41,000  Level FlightAware
12:53AM 39.4370 145.3930 222° Southwest 487 560 41,000  Level FlightAware
12:54AM 39.3690 145.3130 222° Southwest 487 560 41,000  Level FlightAware
12:55AM 39.3140 145.2490 222° Southwest 487 560 41,000  Level FlightAware
12:55AM 39.2610 145.1870 222° Southwest 487 560 41,000 -420 Level FlightAware
12:58AM 39.0387 144.9268 222° Southwest  Level FlightAware Approximate
12:59AM 38.9445 144.8173 222° Southwest  Level FlightAware Approximate
01:00AM 38.8503 144.7081 222° Southwest  Level FlightAware Approximate
01:01AM 38.7557 144.5996 222° Southwest  Level FlightAware Approximate
01:02AM 38.6607 144.4919 222° Southwest  Level FlightAware Approximate
01:03AM 38.5656 144.3844 221° Southwest  Level FlightAware Approximate
01:04AM 38.4704 144.2772 221° Southwest  Level FlightAware Approximate
01:05AM 38.3751 144.1703 221° Southwest  Level FlightAware Approximate
01:06AM 38.2797 144.0636 221° Southwest  Level FlightAware Approximate
01:07AM 38.1842 143.9573 221° Southwest  Level FlightAware Approximate
01:08AM 38.0886 143.8512 221° Southwest  Level FlightAware Approximate
01:09AM 37.9929 143.7454 221° Southwest  Level FlightAware Approximate
01:10AM 37.8971 143.6399 221° Southwest  Level FlightAware Approximate
01:11AM 37.8012 143.5347 221° Southwest  Level FlightAware Approximate
01:12AM 37.6937 143.4496 212° Southwest  Level FlightAware Approximate
01:13AM 37.5859 143.3650 212° Southwest  Level FlightAware Approximate
01:14AM 37.4781 143.2807 212° Southwest  Level FlightAware Approximate
01:15AM 37.3703 143.1966 212° Southwest  Level FlightAware Approximate
01:16AM 37.2623 143.1127 212° Southwest  Level FlightAware Approximate
01:17AM 37.1543 143.0291 212° Southwest  Level FlightAware Approximate
01:18AM 37.0509 142.9373 213° Southwest  Level FlightAware Approximate
01:19AM 36.9441 142.8516 213° Southwest  Level FlightAware Approximate
01:20AM 36.8372 142.7661 213° Southwest  Level FlightAware Approximate
01:20AM 36.3420 142.5080 213° Southwest 497 572 31,100  Level FlightAware
01:21AM 36.2690 142.4520 212° Southwest 493 567 29,900 -1,860 Descending FlightAware
01:22AM 36.1830 142.3880 211° Southwest 475 547 28,500 -1,980 Descending FlightAware
01:22AM 36.1010 142.3270 211° Southwest 471 542 27,100 -2,040 Descending FlightAware
01:23AM 36.0320 142.2740 212° Southwest 458 527 25,900 -1,740 Descending FlightAware
01:23AM 36.0030 142.2410 223° Southwest 440 506 25,400 -1,740 Descending FlightAware
01:24AM 35.9780 142.1710 246° West 432 497 24,500 -1,440 Descending FlightAware
01:24AM 35.9700 142.0850 263° West 428 493 23,900 -1,440 Descending FlightAware
01:25AM 35.9600 141.9780 263° West 418 481 22,600 -1,740 Descending FlightAware
01:26AM 35.9510 141.8830 263° West 408 470 21,500 -1,740 Descending FlightAware
01:27AM 35.9410 141.7820 263° West 396 456 20,200 -1,800 Descending FlightAware
01:27AM 35.9320 141.6900 263° West 385 443 19,000 -1,920 Descending FlightAware
01:28AM 35.9230 141.5950 263° West 381 438 17,500 -1,920 Descending FlightAware
01:29AM 35.9160 141.5200 263° West 374 430 16,500 -1,800 Descending FlightAware
01:29AM 35.9050 141.4150 263° West 361 415 15,000 -1,620 Descending FlightAware
01:30AM 35.8970 141.3340 263° West 347 399 14,100 -1,500 Descending FlightAware
01:31AM 35.8900 141.2570 264° West 341 392 13,000 -1,740 Descending FlightAware
01:31AM 35.8820 141.1800 263° West 333 383 11,800 -1,620 Descending FlightAware
01:32AM 35.8750 141.1060 263° West 319 367 10,900 -1,020 Descending FlightAware
01:33AM 35.8690 141.0370 264° West 294 338 10,500 -540 Descending FlightAware
01:34AM 35.8630 140.9650 264° West 274 315 10,200 -780 Descending FlightAware
01:34AM 35.8600 140.9330 263° West 275 316 9,700 -1,080 Descending FlightAware
01:34AM 35.8570 140.8940 265° West 266 306 9,400 -600 Descending FlightAware
01:35AM 35.8530 140.8500 264° West 252 290 9,200 -360 Descending FlightAware
01:35AM 35.8500 140.8150 264° West 248 285 9,100 -180 Descending FlightAware
01:35AM 35.8480 140.7930 264° West 250 288 9,100 240 Level FlightAware
01:36AM 35.8510 140.7790 285° West 250 288 9,200  Climbing FlightAware
01:36AM 35.8650 140.7400 294° West 254 292 9,100 -420 Descending FlightAware
01:37AM 35.8810 140.7020 297° West 252 290 8,800 -840 Descending FlightAware
01:37AM 35.8960 140.6630 295° West 252 290 8,300 -1,080 Descending FlightAware
01:37AM 35.9010 140.6510 297° West 251 289 8,100 -1,080 Descending FlightAware
01:38AM 35.9180 140.6110 298° West 252 290 7,600 -1,020 Descending FlightAware
01:38AM 35.9300 140.5820 297° West 245 282 7,200 -720 Descending FlightAware
01:39AM 35.9410 140.5550 297° West 242 278 7,100 -720 Descending FlightAware
01:39AM 35.9530 140.5250 296° West 242 278 6,700 -1,080 Descending FlightAware
01:39AM 35.9640 140.4920 292° West 238 274 6,200 -840 Descending FlightAware
01:40AM 35.9720 140.4580 286° West 229 264 6,000 -900 Descending FlightAware
01:40AM 35.9800 140.4200 285° West 231 266 5,400 -840 Descending FlightAware
01:41AM 35.9800 140.3800 270° West 224 258 5,100 -720 Descending FlightAware
01:41AM 35.9790 140.3490 268° West 223 257 4,700 -1,080 Descending FlightAware
01:42AM 35.9770 140.3340 261° West 217 250 4,500 -600 Descending FlightAware
01:42AM 35.9660 140.3000 248° West 199 229 4,300 -780 Descending FlightAware
01:42AM 35.9540 140.2790 235° Southwest 183 211 3,800 -1,080 Descending FlightAware
01:43AM 35.9340 140.2680 204° Southwest 166 191 3,400 -1,200 Descending FlightAware
01:43AM 35.9190 140.2710 171° South 165 190 3,000 -660 Descending FlightAware
01:44AM 35.8990 140.2780 164° South 156 180 2,900 -300 Descending FlightAware
01:44AM 35.8880 140.2860 149° Southeast 160 184 2,800 -720 Descending FlightAware
01:44AM 35.8700 140.2990 150° Southeast 159 183 2,400 -900 Descending FlightAware
01:45AM 35.8540 140.3110 149° Southeast 158 182 2,000 -900 Descending FlightAware
01:45AM 35.8440 140.3180 150° Southeast 157 181 1,800 -840 Descending FlightAware
01:46AM 35.8270 140.3300 150° Southeast 155 178 1,400 -840 Descending FlightAware
01:46AM 35.8170 140.3370 150° Southeast 146 168 1,200 -780 Descending FlightAware
01:46AM 35.8040 140.3470 148° Southeast 134 154 900 -720 Descending FlightAware
01:47AM 35.7880 140.3580 151° Southeast 131 151 600 -600 Descending FlightAware
01:47AM 35.7820 140.3630 146° Southeast 133 153 500 -300 Descending FlightAware
01:47AM 35.7670 140.3740 149° Southeast 134 154 400 -240 Descending FlightAware
01:50AM 35.7647 140.3864 253° West  Level Estimated
01:51AM 35.7647 140.3864 253° West  Level Estimated
01:52AM 35.7647 140.3864 253° West  Level Estimated
01:53AM 35.7647 140.3864 253° West  Level Estimated
01:54AM 35.7647 140.3864 253° West  Level Estimated
01:55AM 35.7647 140.3864 253° West  Level Estimated
01:56AM 35.7647 140.3864 253° West  Level Estimated
01:57AM 35.7647 140.3864 253° West  Level Estimated
01:58AM 35.7647 140.3864 253° West  Level Estimated
01:59AM 35.7647 140.3864 253° West  Level Estimated
02:00AM 35.7647 140.3864 253° West  Level Estimated
02:01AM 35.7647 140.3864 253° West  Level Estimated
02:02AM 35.7647 140.3864 253° West  Level Estimated
02:03AM 35.7647 140.3864 253° West  Level Estimated
02:04AM 35.7647 140.3864 253° West  Level Estimated
02:05AM 35.7647 140.3864 253° West  Level Estimated
02:06AM 35.7647 140.3864 253° West  Level Estimated
02:07AM 35.7647 140.3864 253° West  Level Estimated